createdAt,value
2019-03-04T00:00:55.626Z,11.50
2019-03-04T00:03:23.905Z,11.50
2019-03-04T00:05:51.565Z,11.70
2019-03-04T00:08:19.696Z,11.50
2019-03-04T00:10:49.192Z,11.40
2019-03-04T00:13:18.161Z,11.30
2019-03-04T00:15:46.438Z,11.40
2019-03-04T00:18:14.722Z,11.40
2019-03-04T00:20:46.199Z,11.40
2019-03-04T00:25:41.465Z,11.40
2019-03-04T00:30:39.033Z,11.50
2019-03-04T00:33:07.771Z,11.50
2019-03-04T00:35:35.663Z,11.40
2019-03-04T00:38:04.351Z,11.70
2019-03-04T00:42:59.992Z,11.50
2019-03-04T00:50:23.711Z,11.60
2019-03-04T00:52:52.295Z,11.60
2019-03-04T00:55:20.002Z,11.60
2019-03-04T00:57:48.120Z,11.90
2019-03-04T01:00:18.076Z,11.60
2019-03-04T01:05:14.422Z,11.40
2019-03-04T01:10:14.774Z,11.90
2019-03-04T01:12:43.161Z,11.60
2019-03-04T01:20:11.118Z,11.80
2019-03-04T01:25:08.240Z,11.70
2019-03-04T01:35:01.189Z,11.80
2019-03-04T01:39:57.052Z,12.00
2019-03-04T01:44:52.956Z,12.20
2019-03-04T01:47:21.480Z,12.10
2019-03-04T01:49:49.596Z,12.30
2019-03-04T01:52:17.301Z,11.70
2019-03-04T01:54:46.174Z,12.00
2019-03-04T01:57:15.080Z,12.00
2019-03-04T01:59:42.630Z,12.00
2019-03-04T02:02:11.434Z,12.00
2019-03-04T02:07:07.720Z,11.70
2019-03-04T02:09:36.127Z,12.10
2019-03-04T02:12:03.977Z,12.00
2019-03-04T02:17:00.135Z,12.10
2019-03-04T02:19:28.225Z,12.20
2019-03-04T02:21:56.979Z,12.10
2019-03-04T02:26:57.352Z,12.20
2019-03-04T02:29:26.076Z,12.20
2019-03-04T02:31:56.610Z,12.10
2019-03-04T02:34:25.155Z,12.30
2019-03-04T02:36:53.541Z,12.00
2019-03-04T02:49:16.866Z,11.90
2019-03-04T02:51:45.226Z,12.10
2019-03-04T02:54:14.270Z,11.90
2019-03-04T02:56:42.303Z,11.90
2019-03-04T02:59:10.678Z,11.70
2019-03-04T03:04:06.738Z,11.80
2019-03-04T03:09:04.616Z,11.90
2019-03-04T03:11:34.187Z,11.60
2019-03-04T03:14:01.888Z,11.70
2019-03-04T03:16:30.481Z,11.60
2019-03-04T03:21:26.391Z,11.40
2019-03-04T03:31:19.787Z,11.80
2019-03-04T03:33:48.707Z,11.70
2019-03-04T03:41:14.267Z,11.30
2019-03-04T03:43:42.845Z,11.70
2019-03-04T03:46:11.197Z,11.20
2019-03-04T03:48:39.234Z,11.60
2019-03-04T03:51:07.995Z,11.70
2019-03-04T03:53:36.082Z,11.80
2019-03-04T03:58:33.224Z,11.40
2019-03-04T04:01:02.334Z,11.40
2019-03-04T04:03:29.969Z,11.20
2019-03-04T04:05:58.009Z,11.40
2019-03-04T04:08:27.182Z,11.40
2019-03-04T04:10:56.000Z,11.50
2019-03-04T04:13:26.208Z,11.50
2019-03-04T04:15:54.369Z,11.40
2019-03-04T04:18:22.703Z,10.90
2019-03-04T04:20:50.579Z,11.20
2019-03-04T04:23:18.635Z,11.30
2019-03-04T04:28:13.225Z,11.30
2019-03-04T04:30:42.115Z,11.10
2019-03-04T04:33:10.542Z,11.40
2019-03-04T04:35:39.189Z,11.30
2019-03-04T04:40:36.206Z,11.30
2019-03-04T04:43:03.865Z,11.40
2019-03-04T04:45:32.335Z,11.30
2019-03-04T04:55:24.729Z,11.30
2019-03-04T04:57:52.756Z,10.90
2019-03-04T05:05:16.156Z,11.00
2019-03-04T05:10:14.705Z,11.20
2019-03-04T05:12:43.172Z,10.80
2019-03-04T05:17:39.888Z,11.00
2019-03-04T05:20:11.085Z,11.00
2019-03-04T05:27:36.939Z,11.00
2019-03-04T05:30:05.964Z,11.00
2019-03-04T05:32:35.642Z,11.10
2019-03-04T05:35:04.434Z,11.60
2019-03-04T05:37:32.823Z,10.90
2019-03-04T05:40:01.710Z,11.00
2019-03-04T05:44:58.404Z,11.10
2019-03-04T05:50:12.690Z,11.00
2019-03-04T05:52:40.711Z,10.70
2019-03-04T05:55:13.066Z,11.20
2019-03-04T05:57:41.385Z,11.10
2019-03-04T06:00:13.250Z,11.30
2019-03-04T06:05:12.427Z,11.00
2019-03-04T06:07:43.715Z,10.70
2019-03-04T06:12:40.472Z,10.90
2019-03-04T06:17:40.883Z,10.80
2019-03-04T06:22:37.795Z,10.40
2019-03-04T06:25:08.116Z,11.00
2019-03-04T06:27:37.903Z,11.10
2019-03-04T06:30:06.959Z,10.70
2019-03-04T06:35:03.913Z,10.70
2019-03-04T06:37:32.244Z,10.50
2019-03-04T06:40:00.696Z,10.40
2019-03-04T06:42:28.700Z,10.70
2019-03-04T06:44:57.560Z,10.70
2019-03-04T06:49:54.431Z,10.70
2019-03-04T06:52:22.832Z,10.60
2019-03-04T06:55:41.861Z,10.50
2019-03-04T06:58:10.643Z,11.10
2019-03-04T07:01:11.305Z,10.80
2019-03-04T07:03:51.773Z,10.80
2019-03-04T07:06:19.792Z,10.90
2019-03-04T07:09:08.771Z,10.90
2019-03-04T07:14:05.311Z,11.00
2019-03-04T07:16:33.314Z,11.60
2019-03-04T07:21:31.474Z,11.60
2019-03-04T07:23:59.748Z,11.50
2019-03-04T07:26:27.729Z,11.30
2019-03-04T07:28:56.131Z,11.10
2019-03-04T07:31:24.535Z,11.20
2019-03-04T07:33:53.607Z,11.80
2019-03-04T07:36:21.271Z,12.00
2019-03-04T07:38:57.084Z,11.90
2019-03-04T07:41:26.249Z,11.40
2019-03-04T07:46:22.400Z,11.40
2019-03-04T07:48:56.287Z,11.50
2019-03-04T07:51:24.396Z,11.80
2019-03-04T07:53:52.527Z,12.10
2019-03-04T07:56:20.196Z,12.00
2019-03-04T07:58:47.886Z,12.10
2019-03-04T08:03:45.228Z,12.20
2019-03-04T08:09:14.567Z,12.60
2019-03-04T08:12:15.417Z,12.50
2019-03-04T08:17:11.371Z,12.90
2019-03-04T08:22:07.285Z,12.70
2019-03-04T08:24:36.057Z,12.70
2019-03-04T08:27:06.215Z,12.70
2019-03-04T08:29:34.690Z,12.60
2019-03-04T08:32:02.759Z,12.50
2019-03-04T08:34:31.458Z,12.10
2019-03-04T08:36:59.397Z,12.20
2019-03-04T08:39:27.822Z,11.80
2019-03-04T08:41:55.969Z,11.70
2019-03-04T08:44:23.319Z,11.60
2019-03-04T08:49:19.452Z,11.70
2019-03-04T08:51:47.326Z,11.90
2019-03-04T08:54:15.808Z,11.80
2019-03-04T08:56:43.898Z,11.40
2019-03-04T09:04:08.308Z,12.20
2019-03-04T09:06:55.392Z,11.70
2019-03-04T09:09:23.749Z,11.90
2019-03-04T09:14:20.661Z,12.80
2019-03-04T09:16:49.170Z,12.60
2019-03-04T09:21:45.680Z,12.60
2019-03-04T09:26:42.231Z,12.80
2019-03-04T09:29:10.402Z,12.70
2019-03-04T09:31:38.992Z,12.60
2019-03-04T09:34:08.459Z,13.40
2019-03-04T09:36:36.885Z,13.60
2019-03-04T09:41:34.556Z,15.00
2019-03-04T09:44:02.267Z,15.70
2019-03-04T09:51:27.459Z,17.50
2019-03-04T09:53:56.823Z,17.90
2019-03-04T09:56:24.126Z,18.00
2019-03-04T09:58:54.499Z,17.20
2019-03-04T10:01:41.555Z,16.60
2019-03-04T10:04:50.202Z,16.00
2019-03-04T10:08:02.219Z,15.50
2019-03-04T10:11:11.539Z,16.00
2019-03-04T10:14:04.899Z,16.60
2019-03-04T10:17:00.622Z,17.00
2019-03-04T10:20:04.232Z,17.70
2019-03-04T10:23:07.831Z,17.60
2019-03-04T10:28:53.181Z,16.10
2019-03-04T10:34:49.393Z,14.20
2019-03-04T10:37:51.941Z,14.00
2019-03-04T10:40:59.245Z,13.80
2019-03-04T10:44:20.917Z,13.50
2019-03-04T10:46:56.450Z,13.20
2019-03-04T10:49:26.351Z,12.90
2019-03-04T10:51:54.955Z,12.60
2019-03-04T10:54:23.147Z,12.20
2019-03-04T10:56:50.865Z,11.90
2019-03-04T10:59:19.690Z,11.80
2019-03-04T11:01:49.988Z,12.20
2019-03-04T11:04:17.960Z,12.20
2019-03-04T11:06:45.657Z,12.20
2019-03-04T11:09:13.900Z,14.50
2019-03-04T11:11:43.388Z,18.30
2019-03-04T11:14:12.674Z,20.50
2019-03-04T11:19:09.469Z,21.20
2019-03-04T11:21:38.157Z,19.40
2019-03-04T11:24:07.791Z,18.70
2019-03-04T11:26:35.506Z,17.80
2019-03-04T11:31:32.849Z,17.20
2019-03-04T11:34:01.337Z,19.10
2019-03-04T11:36:29.793Z,19.70
2019-03-04T11:39:21.301Z,19.60
2019-03-04T11:41:50.166Z,19.10
2019-03-04T11:44:18.495Z,17.40
2019-03-04T11:46:46.241Z,16.40
2019-03-04T11:49:15.417Z,14.60
2019-03-04T11:51:43.962Z,14.30
2019-03-04T11:54:12.672Z,14.30
2019-03-04T11:56:41.479Z,13.90
2019-03-04T11:59:10.152Z,14.20
2019-03-04T12:01:44.629Z,15.50
2019-03-04T12:04:12.739Z,14.80
2019-03-04T12:06:40.419Z,15.00
2019-03-04T12:09:13.393Z,15.80
2019-03-04T12:11:42.097Z,14.90
2019-03-04T12:14:10.204Z,15.00
2019-03-04T12:16:38.432Z,14.90
2019-03-04T12:19:06.526Z,14.80
2019-03-04T12:21:34.995Z,14.60
2019-03-04T12:24:02.322Z,13.60
2019-03-04T12:26:30.868Z,13.60
2019-03-04T12:28:58.633Z,13.00
2019-03-04T12:31:30.717Z,12.70
2019-03-04T12:36:29.571Z,14.40
2019-03-04T12:38:58.033Z,14.30
2019-03-04T12:41:25.877Z,13.80
2019-03-04T12:43:55.123Z,13.70
2019-03-04T12:46:23.282Z,13.60
2019-03-04T12:51:23.391Z,12.60
2019-03-04T12:53:50.675Z,12.30
2019-03-04T12:56:18.396Z,12.10
2019-03-04T12:58:47.255Z,11.80
2019-03-04T13:01:15.975Z,11.80
2019-03-04T13:03:43.901Z,11.80
2019-03-04T13:06:12.670Z,11.40
2019-03-04T13:08:40.536Z,11.10
2019-03-04T13:11:09.657Z,11.00
2019-03-04T13:13:38.022Z,11.00
2019-03-04T13:16:06.500Z,10.80
2019-03-04T13:18:34.899Z,10.50
2019-03-04T13:21:03.421Z,10.50
2019-03-04T13:23:31.254Z,10.50
2019-03-04T13:26:01.567Z,10.50
2019-03-04T13:28:30.354Z,10.50
2019-03-04T13:30:58.734Z,10.60
2019-03-04T13:33:26.818Z,10.70
2019-03-04T13:35:56.529Z,10.60
2019-03-04T13:38:24.290Z,10.50
2019-03-04T13:40:51.966Z,10.60
2019-03-04T13:43:22.670Z,10.60
2019-03-04T13:45:50.392Z,10.60
2019-03-04T13:48:19.129Z,10.50
2019-03-04T13:51:38.658Z,10.30
2019-03-04T13:54:06.732Z,10.10
2019-03-04T13:56:35.371Z,9.90
2019-03-04T13:59:04.507Z,9.80
2019-03-04T14:01:33.453Z,9.80
2019-03-04T14:04:02.547Z,9.80
2019-03-04T14:06:29.856Z,9.80
2019-03-04T14:09:04.152Z,9.80
2019-03-04T14:11:32.440Z,9.80
2019-03-04T14:14:01.961Z,9.70
2019-03-04T14:16:30.181Z,9.70
2019-03-04T14:18:58.872Z,9.70
2019-03-04T14:21:27.686Z,9.60
2019-03-04T14:23:56.254Z,9.50
2019-03-04T14:26:24.588Z,9.50
2019-03-04T14:28:52.914Z,9.60
2019-03-04T14:31:21.003Z,9.70
2019-03-04T14:33:49.189Z,9.80
2019-03-04T14:36:18.534Z,9.80
2019-03-04T14:38:47.023Z,9.80
2019-03-04T14:41:15.967Z,9.80
2019-03-04T14:43:44.508Z,9.80
2019-03-04T14:46:21.415Z,9.70
2019-03-04T14:48:49.910Z,9.80
2019-03-04T14:51:19.029Z,9.50
2019-03-04T14:53:47.438Z,9.20
2019-03-04T14:56:22.386Z,9.20
2019-03-04T14:58:46.176Z,9.10
2019-03-04T15:01:15.010Z,9.00
2019-03-04T15:03:43.058Z,8.90
2019-03-04T15:06:11.722Z,8.90
2019-03-04T15:08:41.915Z,8.90
2019-03-04T15:11:10.829Z,9.20
2019-03-04T15:13:39.062Z,9.20
2019-03-04T15:16:08.075Z,9.30
2019-03-04T15:18:36.575Z,9.30
2019-03-04T15:21:09.597Z,9.30
2019-03-04T15:23:38.310Z,9.30
2019-03-04T15:26:06.192Z,9.30
2019-03-04T15:28:34.709Z,9.20
2019-03-04T15:31:02.459Z,9.20
2019-03-04T15:33:30.226Z,9.20
2019-03-04T15:35:59.108Z,9.20
2019-03-04T15:38:29.255Z,9.40
2019-03-04T15:40:57.719Z,9.60
2019-03-04T15:43:26.765Z,9.80
2019-03-04T15:45:56.182Z,9.80
2019-03-04T15:48:25.799Z,9.70
2019-03-04T15:50:55.634Z,9.60
2019-03-04T15:53:24.354Z,9.60
2019-03-04T15:55:52.504Z,9.60
2019-03-04T15:58:21.067Z,9.70
2019-03-04T16:00:49.700Z,9.60
2019-03-04T16:03:18.315Z,9.50
2019-03-04T16:05:46.947Z,9.50
2019-03-04T16:08:15.188Z,9.40
2019-03-04T16:10:44.064Z,9.50
2019-03-04T16:13:12.173Z,9.40
2019-03-04T16:15:40.906Z,9.40
2019-03-04T16:18:09.463Z,9.20
2019-03-04T16:20:38.060Z,9.20
2019-03-04T16:23:07.318Z,9.10
2019-03-04T16:25:36.029Z,9.00
2019-03-04T16:28:10.205Z,9.00
2019-03-04T16:30:38.928Z,8.90
2019-03-04T16:33:06.720Z,8.90
2019-03-04T16:35:34.879Z,8.90
2019-03-04T16:38:03.375Z,8.90
2019-03-04T16:40:31.839Z,8.90
2019-03-04T16:42:59.934Z,8.90
2019-03-04T16:45:28.855Z,8.80
2019-03-04T16:47:57.099Z,8.70
2019-03-04T16:50:24.927Z,8.70
2019-03-04T16:52:53.234Z,8.60
2019-03-04T16:55:21.868Z,8.50
2019-03-04T16:57:49.581Z,8.40
2019-03-04T17:02:45.628Z,8.30
2019-03-04T17:05:14.803Z,8.30
2019-03-04T17:07:43.240Z,8.30
2019-03-04T17:10:11.624Z,8.20
2019-03-04T17:12:39.828Z,8.10
2019-03-04T17:15:10.255Z,8.00
2019-03-04T17:17:39.283Z,7.90
2019-03-04T17:20:09.274Z,7.80
2019-03-04T17:22:37.364Z,7.80
2019-03-04T17:25:07.269Z,7.70
2019-03-04T17:32:32.009Z,8.20
2019-03-04T17:42:24.024Z,8.00
2019-03-04T17:47:20.393Z,7.60
2019-03-04T17:49:47.805Z,7.70
2019-03-04T17:52:16.421Z,8.00
2019-03-04T17:54:44.546Z,7.50
2019-03-04T17:59:41.849Z,7.90
2019-03-04T18:04:39.080Z,7.70
2019-03-04T18:12:05.572Z,7.80
2019-03-04T18:14:34.549Z,7.70
2019-03-04T18:19:31.942Z,7.30
2019-03-04T18:22:00.219Z,7.50
2019-03-04T18:24:29.182Z,7.00
2019-03-04T18:30:17.284Z,7.80
2019-03-04T18:33:50.916Z,7.80
2019-03-04T18:39:07.530Z,8.10
2019-03-04T18:49:43.413Z,8.00
2019-03-04T18:54:45.241Z,8.00
2019-03-04T19:02:08.923Z,8.10
2019-03-04T19:04:38.201Z,8.30
2019-03-04T19:12:03.638Z,8.40
2019-03-04T19:14:34.824Z,8.70
2019-03-04T19:17:02.203Z,8.70
2019-03-04T19:19:39.158Z,8.30
2019-03-04T19:27:05.331Z,8.60
2019-03-04T19:32:01.952Z,8.10
2019-03-04T19:34:29.960Z,8.30
2019-03-04T19:46:50.192Z,8.20
2019-03-04T19:51:46.496Z,8.10
2019-03-04T19:56:45.740Z,8.00
2019-03-04T20:01:42.703Z,7.50
2019-03-04T20:11:38.278Z,7.60
2019-03-04T20:24:02.761Z,8.00
2019-03-04T20:26:30.469Z,7.90
2019-03-04T20:31:26.506Z,8.40
2019-03-04T20:33:55.091Z,7.80
2019-03-04T20:38:51.257Z,7.40
2019-03-04T20:46:14.862Z,7.30
2019-03-04T20:48:43.127Z,7.60
2019-03-04T20:51:11.244Z,7.30
2019-03-04T20:53:39.792Z,7.60
2019-03-04T20:56:07.866Z,7.20
2019-03-04T21:01:04.403Z,7.90
2019-03-04T21:03:35.103Z,8.10
2019-03-04T21:06:02.349Z,7.00
2019-03-04T21:42:16.465Z,7.40
2019-03-04T21:55:01.683Z,7.50
2019-03-04T22:00:10.023Z,7.90
2019-03-04T22:05:25.539Z,6.80
2019-03-04T22:07:53.908Z,6.90
2019-03-04T22:44:56.268Z,7.20
2019-03-04T22:52:21.008Z,7.10
2019-03-04T23:12:52.056Z,7.20
2019-03-04T23:15:22.337Z,7.00
2019-03-04T23:17:50.715Z,6.00
2019-03-04T23:30:12.836Z,7.10
2019-03-04T23:35:09.199Z,6.60
2019-03-04T23:45:01.714Z,6.70
2019-03-04T23:47:29.931Z,6.90
2019-03-04T23:55:06.078Z,7.00
